createdAt,value
2023-07-27T00:00:31.088Z,98647.56
2023-07-27T00:01:03.461Z,98640.53
2023-07-27T00:01:38.243Z,98638.97
2023-07-27T00:02:10.552Z,98643.28
2023-07-27T00:02:42.841Z,98637.81
2023-07-27T00:03:15.072Z,98641.34
2023-07-27T00:03:49.953Z,98641.34
2023-07-27T00:04:24.104Z,98639.00
2023-07-27T00:04:56.298Z,98639.78
2023-07-27T00:05:31.205Z,98630.41
2023-07-27T00:06:03.485Z,98633.16
2023-07-27T00:06:35.979Z,98629.25
2023-07-27T00:07:10.949Z,98626.13
2023-07-27T00:07:43.127Z,98621.03
2023-07-27T00:08:15.427Z,98624.94
2023-07-27T00:08:50.329Z,98624.50
2023-07-27T00:09:22.527Z,98609.63
2023-07-27T00:09:54.967Z,98622.16
2023-07-27T00:10:29.320Z,98621.38
2023-07-27T00:11:01.739Z,98618.63
2023-07-27T00:11:36.825Z,98620.97
2023-07-27T00:12:09.666Z,98614.72
2023-07-27T00:12:42.109Z,98613.56
2023-07-27T00:13:18.178Z,98611.59
2023-07-27T00:13:53.420Z,98615.13
2023-07-27T00:14:25.870Z,98610.44
2023-07-27T00:14:58.290Z,98609.28
2023-07-27T00:15:33.398Z,98614.78
2023-07-27T00:16:06.838Z,98610.09
2023-07-27T00:16:39.315Z,98614.78
2023-07-27T00:17:14.303Z,98617.13
2023-07-27T00:17:46.815Z,98610.84
2023-07-27T00:18:19.345Z,98602.63
2023-07-27T00:18:51.718Z,98606.94
2023-07-27T00:19:26.852Z,98606.94
2023-07-27T00:19:59.385Z,98605.00
2023-07-27T00:20:31.675Z,98610.13
2023-07-27T00:21:04.277Z,98608.56
2023-07-27T00:21:39.160Z,98598.78
2023-07-27T00:22:11.779Z,98604.25
2023-07-27T00:22:44.381Z,98603.88
2023-07-27T00:23:16.773Z,98601.94
2023-07-27T00:23:49.252Z,98607.41
2023-07-27T00:24:24.316Z,98599.19
2023-07-27T00:24:56.866Z,98606.19
2023-07-27T00:25:29.288Z,98601.47
2023-07-27T00:26:01.498Z,98603.81
2023-07-27T00:26:36.619Z,98596.31
2023-07-27T00:27:08.989Z,98604.50
2023-07-27T00:27:41.233Z,98596.25
2023-07-27T00:28:13.633Z,98597.78
2023-07-27T00:28:48.573Z,98596.63
2023-07-27T00:29:23.572Z,98597.00
2023-07-27T00:29:56.025Z,98591.91
2023-07-27T00:30:28.284Z,98596.22
2023-07-27T00:31:03.152Z,98605.25
2023-07-27T00:31:35.446Z,98603.69
2023-07-27T00:32:08.529Z,98588.84
2023-07-27T00:32:43.837Z,98604.09
2023-07-27T00:33:16.148Z,98606.84
2023-07-27T00:33:49.262Z,98597.44
2023-07-27T00:34:21.581Z,98602.13
2023-07-27T00:34:57.974Z,98606.47
2023-07-27T00:35:30.472Z,98600.63
2023-07-27T00:36:02.781Z,98604.94
2023-07-27T00:36:37.607Z,98595.94
2023-07-27T00:37:09.900Z,98590.44
2023-07-27T00:37:42.742Z,98596.72
2023-07-27T00:38:14.949Z,98595.94
2023-07-27T00:38:52.517Z,98590.44
2023-07-27T00:39:24.814Z,98589.22
2023-07-27T00:39:57.060Z,98586.50
2023-07-27T00:40:31.994Z,98589.63
2023-07-27T00:41:04.447Z,98588.84
2023-07-27T00:41:36.726Z,98577.88
2023-07-27T00:42:08.982Z,98577.09
2023-07-27T00:42:43.823Z,98579.03
2023-07-27T00:43:16.056Z,98573.94
2023-07-27T00:43:48.291Z,98579.03
2023-07-27T00:44:23.182Z,98585.69
2023-07-27T00:44:58.027Z,98576.34
2023-07-27T00:45:30.388Z,98575.53
2023-07-27T00:46:02.838Z,98582.59
2023-07-27T00:46:35.557Z,98578.28
2023-07-27T00:47:10.836Z,98583.75
2023-07-27T00:47:43.217Z,98585.69
2023-07-27T00:48:15.719Z,98582.19
2023-07-27T00:48:48.304Z,98574.34
2023-07-27T00:49:23.739Z,98584.94
2023-07-27T00:49:56.032Z,98580.63
2023-07-27T00:50:29.203Z,98580.22
2023-07-27T00:51:02.217Z,98578.28
2023-07-27T00:51:36.509Z,98580.28
2023-07-27T00:52:12.422Z,98573.63
2023-07-27T00:52:44.770Z,98577.59
2023-07-27T00:53:18.059Z,98575.25
2023-07-27T00:53:53.068Z,98576.47
2023-07-27T00:54:26.282Z,98568.63
2023-07-27T00:55:00.196Z,98567.91
2023-07-27T00:55:33.208Z,98567.16
2023-07-27T00:56:08.738Z,98560.50
2023-07-27T00:56:41.377Z,98563.25
2023-07-27T00:57:13.744Z,98564.06
2023-07-27T00:57:46.018Z,98563.72
2023-07-27T00:58:20.900Z,98563.31
2023-07-27T00:58:53.200Z,98564.91
2023-07-27T00:59:28.641Z,98562.56
2023-07-27T01:00:00.975Z,98564.91
2023-07-27T01:00:36.526Z,98567.28
2023-07-27T01:01:08.999Z,98571.63
2023-07-27T01:01:42.854Z,98575.91
2023-07-27T01:02:17.912Z,98578.28
2023-07-27T01:02:50.375Z,98577.91
2023-07-27T01:03:22.777Z,98589.66
2023-07-27T01:03:55.718Z,98583.00
2023-07-27T01:04:30.803Z,98592.00
2023-07-27T01:05:03.339Z,98588.47
2023-07-27T01:05:35.961Z,98590.84
2023-07-27T01:06:10.020Z,98593.59
2023-07-27T01:06:45.023Z,98592.44
2023-07-27T01:07:17.262Z,98589.69
2023-07-27T01:07:49.489Z,98589.69
2023-07-27T01:08:21.847Z,98585.38
2023-07-27T01:08:57.060Z,98586.16
2023-07-27T01:09:29.322Z,98581.06
2023-07-27T01:10:01.612Z,98584.59
2023-07-27T01:10:50.739Z,98578.28
2023-07-27T01:11:32.472Z,98575.16
2023-07-27T01:12:15.026Z,98580.19
2023-07-27T01:12:53.618Z,98572.34
2023-07-27T01:13:35.225Z,98562.56
2023-07-27T01:14:15.488Z,98566.47
2023-07-27T01:14:53.910Z,98567.94
2023-07-27T01:15:33.911Z,98565.59
2023-07-27T01:16:10.703Z,98571.88
2023-07-27T01:16:49.513Z,98566.03
2023-07-27T01:17:26.255Z,98558.97
2023-07-27T01:18:05.442Z,98564.06
2023-07-27T01:18:46.827Z,98566.38
2023-07-27T01:19:38.276Z,98559.34
2023-07-27T01:20:23.635Z,98570.31
2023-07-27T01:21:08.510Z,98559.72
2023-07-27T01:21:46.906Z,98563.25
2023-07-27T01:22:41.998Z,98559.72
2023-07-27T01:23:55.731Z,98570.22
2023-07-27T01:24:55.694Z,98569.81
2023-07-27T01:25:46.076Z,98570.97
2023-07-27T01:26:37.704Z,98568.63
2023-07-27T01:27:34.962Z,98583.91
2023-07-27T01:28:22.641Z,98576.50
2023-07-27T01:29:04.554Z,98569.84
2023-07-27T01:30:09.345Z,98582.75
2023-07-27T01:30:55.174Z,98590.56
2023-07-27T01:31:32.578Z,98590.19
2023-07-27T01:32:09.896Z,98585.88
2023-07-27T01:32:44.113Z,98590.97
2023-07-27T01:33:18.984Z,98590.56
2023-07-27T01:33:57.777Z,98596.03
2023-07-27T01:34:35.908Z,98591.75
2023-07-27T01:35:13.998Z,98592.09
2023-07-27T01:35:52.281Z,98585.03
2023-07-27T01:36:30.982Z,98588.19
2023-07-27T01:37:06.095Z,98590.50
2023-07-27T01:37:41.805Z,98590.50
2023-07-27T01:38:15.202Z,98581.47
2023-07-27T01:38:52.482Z,98579.91
2023-07-27T01:39:26.835Z,98570.88
2023-07-27T01:40:02.206Z,98573.22
2023-07-27T01:40:36.064Z,98567.75
2023-07-27T01:41:13.261Z,98556.81
2023-07-27T01:41:47.833Z,98564.97
2023-07-27T01:42:21.352Z,98557.50
2023-07-27T01:42:54.103Z,98560.63
2023-07-27T01:43:30.409Z,98561.78
2023-07-27T01:44:03.677Z,98556.66
2023-07-27T01:44:37.888Z,98553.94
2023-07-27T01:45:16.764Z,98556.28
2023-07-27T01:45:49.995Z,98558.22
2023-07-27T01:46:26.229Z,98558.63
2023-07-27T01:47:03.844Z,98549.56
2023-07-27T01:47:37.983Z,98556.59
2023-07-27T01:48:11.991Z,98553.84
2023-07-27T01:48:45.337Z,98549.09
2023-07-27T01:49:21.675Z,98555.72
2023-07-27T01:49:55.428Z,98550.25
2023-07-27T01:50:30.310Z,98554.91
2023-07-27T01:51:06.867Z,98552.53
2023-07-27T01:51:41.701Z,98554.09
2023-07-27T01:52:16.653Z,98545.88
2023-07-27T01:52:53.783Z,98554.84
2023-07-27T01:53:29.886Z,98546.25
2023-07-27T01:54:03.655Z,98544.66
2023-07-27T01:54:36.437Z,98547.41
2023-07-27T01:55:13.330Z,98544.28
2023-07-27T01:55:46.752Z,98549.78
2023-07-27T01:56:21.209Z,98551.34
2023-07-27T01:56:58.024Z,98554.84
2023-07-27T01:57:31.687Z,98555.66
2023-07-27T01:58:05.487Z,98556.44
2023-07-27T01:58:39.173Z,98552.19
2023-07-27T01:59:13.269Z,98552.25
2023-07-27T01:59:50.022Z,98550.31
2023-07-27T02:00:22.799Z,98547.16
2023-07-27T02:00:56.718Z,98543.72
2023-07-27T02:01:34.692Z,98546.47
2023-07-27T02:02:08.017Z,98533.16
2023-07-27T02:02:42.340Z,98534.72
2023-07-27T02:03:15.212Z,98532.00
2023-07-27T02:03:52.681Z,98532.00
2023-07-27T02:04:25.244Z,98527.69
2023-07-27T02:04:58.599Z,98525.72
2023-07-27T02:05:31.154Z,98523.38
2023-07-27T02:06:06.097Z,98524.53
2023-07-27T02:06:38.303Z,98522.97
2023-07-27T02:07:10.541Z,98519.44
2023-07-27T02:07:46.702Z,98515.91
2023-07-27T02:08:19.155Z,98508.84
2023-07-27T02:08:51.405Z,98510.06
2023-07-27T02:09:26.779Z,98513.19
2023-07-27T02:10:01.651Z,98511.25
2023-07-27T02:10:34.917Z,98513.19
2023-07-27T02:11:10.818Z,98516.38
2023-07-27T02:11:46.691Z,98513.63
2023-07-27T02:12:29.906Z,98514.41
2023-07-27T02:13:10.222Z,98511.25
2023-07-27T02:13:47.431Z,98511.69
2023-07-27T02:14:28.126Z,98512.06
2023-07-27T02:15:08.226Z,98520.72
2023-07-27T02:15:44.834Z,98521.91
2023-07-27T02:16:36.256Z,98519.59
2023-07-27T02:17:16.695Z,98523.91
2023-07-27T02:17:51.046Z,98525.03
2023-07-27T02:18:25.090Z,98525.84
2023-07-27T02:18:59.864Z,98530.22
2023-07-27T02:19:39.911Z,98530.22
2023-07-27T02:20:15.623Z,98536.13
2023-07-27T02:20:50.069Z,98533.78
2023-07-27T02:21:25.690Z,98529.50
2023-07-27T02:22:02.598Z,98538.16
2023-07-27T02:22:39.965Z,98535.78
2023-07-27T02:23:13.642Z,98538.16
2023-07-27T02:23:47.051Z,98537.34
2023-07-27T02:24:21.947Z,98531.88
2023-07-27T02:24:54.647Z,98535.41
2023-07-27T02:25:27.135Z,98536.56
2023-07-27T02:25:59.789Z,98541.69
2023-07-27T02:26:35.561Z,98536.19
2023-07-27T02:27:08.402Z,98533.47
2023-07-27T02:27:40.720Z,98536.59
2023-07-27T02:28:15.909Z,98530.75
2023-07-27T02:28:48.348Z,98522.53
2023-07-27T02:29:21.508Z,98528.03
2023-07-27T02:29:53.814Z,98526.88
2023-07-27T02:30:28.844Z,98526.50
2023-07-27T02:31:01.184Z,98520.63
2023-07-27T02:31:36.520Z,98507.34
2023-07-27T02:32:09.232Z,98508.94
2023-07-27T02:32:44.073Z,98497.22
2023-07-27T02:33:16.318Z,98491.38
2023-07-27T02:33:48.522Z,98480.81
2023-07-27T02:34:23.783Z,98474.16
2023-07-27T02:34:56.534Z,98471.06
2023-07-27T02:35:29.477Z,98465.19
2023-07-27T02:36:02.161Z,98456.59
2023-07-27T02:36:37.924Z,98456.59
2023-07-27T02:37:10.399Z,98444.84
2023-07-27T02:37:42.619Z,98438.97
2023-07-27T02:38:17.528Z,98421.75
2023-07-27T02:38:49.730Z,98426.44
2023-07-27T02:39:21.980Z,98417.84
2023-07-27T02:39:54.266Z,98403.38
2023-07-27T02:40:29.042Z,98404.94
2023-07-27T02:41:01.886Z,98393.56
2023-07-27T02:41:34.297Z,98391.97
2023-07-27T02:42:08.140Z,98397.47
2023-07-27T02:42:43.602Z,98397.47
2023-07-27T02:43:15.845Z,98395.50
2023-07-27T02:43:50.846Z,98399.03
2023-07-27T02:44:23.680Z,98408.78
2023-07-27T02:44:58.492Z,98412.31
2023-07-27T02:45:34.506Z,98426.00
2023-07-27T02:46:09.672Z,98440.50
2023-07-27T02:46:44.624Z,98443.63
2023-07-27T02:47:19.431Z,98461.22
2023-07-27T02:47:52.301Z,98468.66
2023-07-27T02:48:24.826Z,98482.00
2023-07-27T02:48:57.159Z,98500.78
2023-07-27T02:49:31.988Z,98506.69
2023-07-27T02:50:04.869Z,98512.94
2023-07-27T02:50:49.999Z,98524.28
2023-07-27T02:51:24.687Z,98521.06
2023-07-27T02:52:01.492Z,98523.81
2023-07-27T02:52:33.729Z,98528.50
2023-07-27T02:53:09.493Z,98518.75
2023-07-27T02:53:47.899Z,98523.00
2023-07-27T02:54:26.938Z,98520.25
2023-07-27T02:55:01.074Z,98522.97
2023-07-27T02:55:33.397Z,98524.94
2023-07-27T02:56:11.253Z,98529.63
2023-07-27T02:56:51.432Z,98529.59
2023-07-27T02:57:30.326Z,98532.69
2023-07-27T02:58:05.572Z,98538.19
2023-07-27T02:58:42.911Z,98537.38
2023-07-27T02:59:15.138Z,98540.13
2023-07-27T02:59:51.457Z,98555.78
2023-07-27T03:00:26.530Z,98551.47
2023-07-27T03:01:00.579Z,98554.56
2023-07-27T03:01:33.214Z,98562.00
2023-07-27T03:02:13.369Z,98566.66
2023-07-27T03:02:50.353Z,98567.81
2023-07-27T03:03:23.099Z,98571.75
2023-07-27T03:03:57.386Z,98581.47
2023-07-27T03:04:29.888Z,98578.38
2023-07-27T03:05:05.895Z,98581.47
2023-07-27T03:05:38.076Z,98583.44
2023-07-27T03:06:10.713Z,98581.84
2023-07-27T03:06:46.321Z,98585.75
2023-07-27T03:07:21.373Z,98574.03
2023-07-27T03:07:53.639Z,98578.72
2023-07-27T03:08:28.551Z,98577.56
2023-07-27T03:09:00.821Z,98577.56
2023-07-27T03:09:36.593Z,98579.09
2023-07-27T03:10:09.885Z,98576.75
2023-07-27T03:10:42.090Z,98574.03
2023-07-27T03:11:17.038Z,98572.88
2023-07-27T03:11:50.574Z,98571.28
2023-07-27T03:12:22.880Z,98572.88
2023-07-27T03:12:58.520Z,98567.38
2023-07-27T03:13:31.083Z,98567.38
2023-07-27T03:14:03.291Z,98570.13
2023-07-27T03:14:38.406Z,98560.72
2023-07-27T03:15:11.364Z,98553.69
2023-07-27T03:15:43.675Z,98544.28
2023-07-27T03:16:18.689Z,98539.59
2023-07-27T03:16:51.174Z,98538.09
2023-07-27T03:17:26.232Z,98532.22
2023-07-27T03:18:01.035Z,98526.75
2023-07-27T03:18:34.879Z,98526.00
2023-07-27T03:19:07.166Z,98530.72
2023-07-27T03:19:40.228Z,98527.22
2023-07-27T03:20:15.535Z,98533.91
2023-07-27T03:20:47.788Z,98534.31
2023-07-27T03:21:20.718Z,98540.22
2023-07-27T03:21:53.663Z,98550.00
2023-07-27T03:22:29.134Z,98557.84
2023-07-27T03:23:01.586Z,98552.34
2023-07-27T03:23:34.939Z,98564.53
2023-07-27T03:24:08.483Z,98572.75
2023-07-27T03:24:43.372Z,98575.50
2023-07-27T03:25:16.033Z,98586.44
2023-07-27T03:25:49.218Z,98582.91
2023-07-27T03:26:21.432Z,98594.66
2023-07-27T03:26:56.458Z,98606.41
2023-07-27T03:27:28.714Z,98609.91
2023-07-27T03:28:00.988Z,98614.25
2023-07-27T03:28:33.198Z,98621.31
2023-07-27T03:29:07.959Z,98618.19
2023-07-27T03:29:40.159Z,98626.81
2023-07-27T03:30:12.812Z,98630.34
2023-07-27T03:30:45.043Z,98635.47
2023-07-27T03:31:22.463Z,98631.53
2023-07-27T03:31:54.757Z,98633.13
2023-07-27T03:32:29.638Z,98630.81
2023-07-27T03:33:02.041Z,98631.59
2023-07-27T03:33:36.959Z,98631.19
2023-07-27T03:34:09.227Z,98630.03
2023-07-27T03:34:41.659Z,98624.56
2023-07-27T03:35:13.946Z,98628.50
2023-07-27T03:35:49.131Z,98627.31
2023-07-27T03:36:24.734Z,98637.13
2023-07-27T03:36:56.999Z,98634.03
2023-07-27T03:37:29.221Z,98640.28
2023-07-27T03:38:04.109Z,98633.28
2023-07-27T03:38:37.095Z,98635.22
2023-07-27T03:39:09.426Z,98647.00
2023-07-27T03:39:44.382Z,98639.19
2023-07-27T03:40:16.665Z,98631.78
2023-07-27T03:40:48.869Z,98632.53
2023-07-27T03:41:21.090Z,98628.63
2023-07-27T03:41:55.938Z,98629.84
2023-07-27T03:42:28.697Z,98634.53
2023-07-27T03:43:00.928Z,98630.63
2023-07-27T03:43:34.445Z,98619.66
2023-07-27T03:44:09.205Z,98625.56
2023-07-27T03:44:41.406Z,98622.03
2023-07-27T03:45:15.695Z,98624.41
2023-07-27T03:45:50.576Z,98621.66
2023-07-27T03:46:22.895Z,98625.19
2023-07-27T03:46:55.242Z,98614.22
2023-07-27T03:47:30.149Z,98624.00
2023-07-27T03:48:06.001Z,98613.81
2023-07-27T03:48:38.351Z,98618.56
2023-07-27T03:49:10.601Z,98609.16
2023-07-27T03:49:45.522Z,98615.06
2023-07-27T03:50:17.931Z,98612.31
2023-07-27T03:50:52.084Z,98598.25
2023-07-27T03:51:26.861Z,98600.19
2023-07-27T03:51:59.098Z,98602.16
2023-07-27T03:52:31.289Z,98594.72
2023-07-27T03:53:03.584Z,98589.22
2023-07-27T03:53:39.796Z,98589.63
2023-07-27T03:54:11.997Z,98583.34
2023-07-27T03:54:44.845Z,98584.13
2023-07-27T03:55:19.871Z,98581.03
2023-07-27T03:55:55.045Z,98581.03
2023-07-27T03:56:27.780Z,98574.75
2023-07-27T03:57:00.272Z,98562.63
2023-07-27T03:57:33.362Z,98562.63
2023-07-27T03:58:08.236Z,98544.63
2023-07-27T03:58:40.874Z,98540.72
2023-07-27T03:59:13.209Z,98529.38
2023-07-27T03:59:45.468Z,98516.84
2023-07-27T04:00:20.276Z,98517.25
2023-07-27T04:00:53.252Z,98516.47
2023-07-27T04:01:25.723Z,98510.19
2023-07-27T04:02:01.268Z,98504.72
2023-07-27T04:02:36.429Z,98509.41
2023-07-27T04:03:08.768Z,98503.53
2023-07-27T04:03:43.737Z,98502.75
2023-07-27T04:04:16.214Z,98500.38
2023-07-27T04:04:49.284Z,98486.66
2023-07-27T04:05:24.279Z,98494.88
2023-07-27T04:05:56.693Z,98491.34
2023-07-27T04:06:29.187Z,98492.94
2023-07-27T04:07:01.587Z,98501.94
2023-07-27T04:07:36.765Z,98515.66
2023-07-27T04:08:09.330Z,98523.88
2023-07-27T04:08:41.612Z,98541.13
2023-07-27T04:09:16.687Z,98557.94
2023-07-27T04:09:48.987Z,98573.97
2023-07-27T04:10:21.386Z,98586.13
2023-07-27T04:10:53.745Z,98597.09
2023-07-27T04:11:28.731Z,98608.88
2023-07-27T04:12:01.114Z,98621.00
2023-07-27T04:12:34.595Z,98616.28
2023-07-27T04:13:07.022Z,98617.09
2023-07-27T04:13:41.919Z,98616.28
2023-07-27T04:14:14.256Z,98619.03
2023-07-27T04:14:46.670Z,98616.28
2023-07-27T04:15:19.387Z,98616.25
2023-07-27T04:15:54.392Z,98609.56
2023-07-27T04:16:26.793Z,98600.94
2023-07-27T04:16:59.181Z,98597.81
2023-07-27T04:17:31.860Z,98599.41
2023-07-27T04:18:09.971Z,98593.56
2023-07-27T04:18:42.689Z,98584.53
2023-07-27T04:19:15.047Z,98582.16
2023-07-27T04:19:47.508Z,98575.09
2023-07-27T04:20:22.515Z,98573.16
2023-07-27T04:20:54.890Z,98564.09
2023-07-27T04:21:27.260Z,98562.13
2023-07-27T04:21:59.459Z,98565.63
2023-07-27T04:22:34.348Z,98562.84
2023-07-27T04:23:06.625Z,98581.66
2023-07-27T04:23:38.904Z,98583.97
2023-07-27T04:24:13.877Z,98590.25
2023-07-27T04:24:46.722Z,98594.16
2023-07-27T04:25:19.410Z,98601.97
2023-07-27T04:25:51.734Z,98600.41
2023-07-27T04:26:26.565Z,98612.94
2023-07-27T04:26:58.918Z,98609.06
2023-07-27T04:27:31.138Z,98614.13
2023-07-27T04:28:03.495Z,98609.88
2023-07-27T04:28:38.251Z,98613.44
2023-07-27T04:29:10.485Z,98611.06
2023-07-27T04:29:42.804Z,98615.44
2023-07-27T04:30:15.020Z,98613.91
2023-07-27T04:30:49.892Z,98608.44
2023-07-27T04:31:22.147Z,98608.06
2023-07-27T04:31:54.398Z,98608.47
2023-07-27T04:32:28.739Z,98602.63
2023-07-27T04:33:05.184Z,98607.72
2023-07-27T04:33:40.016Z,98598.31
2023-07-27T04:34:12.180Z,98592.03
2023-07-27T04:34:44.686Z,98587.34
2023-07-27T04:35:19.788Z,98597.53
2023-07-27T04:35:52.138Z,98581.06
2023-07-27T04:36:24.355Z,98577.16
2023-07-27T04:36:56.576Z,98580.69
2023-07-27T04:37:31.430Z,98579.16
2023-07-27T04:38:03.746Z,98579.94
2023-07-27T04:38:36.097Z,98583.47
2023-07-27T04:39:10.916Z,98581.91
2023-07-27T04:39:43.115Z,98578.75
2023-07-27T04:40:16.137Z,98585.38
2023-07-27T04:40:52.584Z,98582.66
2023-07-27T04:41:24.856Z,98580.69
2023-07-27T04:41:57.087Z,98576.78
2023-07-27T04:42:29.335Z,98574.06
2023-07-27T04:43:04.146Z,98579.53
2023-07-27T04:43:36.400Z,98582.66
2023-07-27T04:44:08.606Z,98576.78
2023-07-27T04:44:40.801Z,98583.06
2023-07-27T04:45:16.015Z,98585.38
2023-07-27T04:45:48.292Z,98588.47
2023-07-27T04:46:20.810Z,98582.94
2023-07-27T04:46:53.518Z,98585.69
2023-07-27T04:47:28.388Z,98590.81
2023-07-27T04:48:00.721Z,98596.28
2023-07-27T04:48:33.009Z,98602.16
2023-07-27T04:49:10.636Z,98596.28
2023-07-27T04:49:43.872Z,98595.88
2023-07-27T04:50:16.281Z,98593.91
2023-07-27T04:50:48.701Z,98599.03
2023-07-27T04:51:23.536Z,98603.31
2023-07-27T04:51:55.767Z,98599.03
2023-07-27T04:52:29.265Z,98597.47
2023-07-27T04:53:01.521Z,98592.41
2023-07-27T04:53:33.771Z,98591.66
2023-07-27T04:54:08.623Z,98594.78
2023-07-27T04:54:41.043Z,98599.53
2023-07-27T04:55:13.267Z,98599.53
2023-07-27T04:55:45.508Z,98595.25
2023-07-27T04:56:20.251Z,98594.88
2023-07-27T04:56:52.479Z,98601.16
2023-07-27T04:57:24.751Z,98597.25
2023-07-27T04:57:59.671Z,98600.00
2023-07-27T04:58:31.917Z,98600.34
2023-07-27T04:59:04.259Z,98601.16
2023-07-27T04:59:36.473Z,98601.16
2023-07-27T05:00:14.492Z,98601.53
2023-07-27T05:00:53.450Z,98603.13
2023-07-27T05:01:25.769Z,98606.66
2023-07-27T05:01:58.145Z,98605.50
2023-07-27T05:02:32.995Z,98602.34
2023-07-27T05:03:05.310Z,98593.31
2023-07-27T05:03:37.739Z,98594.91
2023-07-27T05:04:12.513Z,98596.09
2023-07-27T05:04:44.730Z,98586.69
2023-07-27T05:05:19.648Z,98584.38
2023-07-27T05:05:53.839Z,98589.06
2023-07-27T05:06:26.026Z,98591.44
2023-07-27T05:06:58.234Z,98588.34
2023-07-27T05:07:33.037Z,98588.34
2023-07-27T05:08:05.976Z,98584.00
2023-07-27T05:08:38.406Z,98587.53
2023-07-27T05:09:12.948Z,98584.00
2023-07-27T05:09:45.499Z,98584.38
2023-07-27T05:10:20.294Z,98577.72
2023-07-27T05:10:52.489Z,98581.28
2023-07-27T05:11:25.216Z,98567.19
2023-07-27T05:11:57.428Z,98567.56
2023-07-27T05:12:33.485Z,98569.16
2023-07-27T05:13:05.674Z,98565.25
2023-07-27T05:13:37.974Z,98556.59
2023-07-27T05:14:12.873Z,98555.44
2023-07-27T05:14:45.135Z,98553.50
2023-07-27T05:15:18.383Z,98556.25
2023-07-27T05:15:53.287Z,98550.75
2023-07-27T05:16:25.586Z,98551.13
2023-07-27T05:16:57.826Z,98551.47
2023-07-27T05:17:30.060Z,98553.47
2023-07-27T05:18:04.992Z,98549.94
2023-07-27T05:18:37.177Z,98548.34
2023-07-27T05:19:12.009Z,98549.94
2023-07-27T05:19:46.861Z,98551.88
2023-07-27T05:20:19.844Z,98551.88
2023-07-27T05:20:52.047Z,98548.75
2023-07-27T05:21:26.892Z,98542.09
2023-07-27T05:21:59.081Z,98538.97
2023-07-27T05:22:31.374Z,98537.03
2023-07-27T05:23:03.645Z,98531.53
2023-07-27T05:23:38.489Z,98526.84
2023-07-27T05:24:11.171Z,98538.59
2023-07-27T05:24:43.472Z,98539.38
2023-07-27T05:25:16.213Z,98535.47
2023-07-27T05:25:51.855Z,98535.09
2023-07-27T05:26:24.040Z,98543.31
2023-07-27T05:26:56.202Z,98543.69
2023-07-27T05:27:31.050Z,98545.28
2023-07-27T05:28:03.916Z,98540.59
2023-07-27T05:28:36.153Z,98540.59
2023-07-27T05:29:08.412Z,98538.22
2023-07-27T05:29:43.666Z,98535.88
2023-07-27T05:30:16.101Z,98544.47
2023-07-27T05:30:48.361Z,98539.00
2023-07-27T05:31:23.249Z,98532.34
2023-07-27T05:31:55.605Z,98540.56
2023-07-27T05:32:27.902Z,98533.13
2023-07-27T05:33:00.414Z,98536.66
2023-07-27T05:33:35.342Z,98537.44
2023-07-27T05:34:09.265Z,98539.38
2023-07-27T05:34:44.044Z,98539.34
2023-07-27T05:35:19.214Z,98542.06
2023-07-27T05:35:51.740Z,98545.59
2023-07-27T05:36:24.189Z,98539.69
2023-07-27T05:36:59.201Z,98544.81
2023-07-27T05:37:31.741Z,98538.97
2023-07-27T05:38:03.923Z,98543.25
2023-07-27T05:38:36.110Z,98534.66
2023-07-27T05:39:10.938Z,98537.81
2023-07-27T05:39:43.155Z,98531.91
2023-07-27T05:40:15.609Z,98525.69
2023-07-27T05:40:50.454Z,98523.34
2023-07-27T05:41:22.644Z,98515.50
2023-07-27T05:41:54.929Z,98522.19
2023-07-27T05:42:28.774Z,98514.38
2023-07-27T05:43:05.414Z,98510.84
2023-07-27T05:43:37.635Z,98509.66
2023-07-27T05:44:09.868Z,98507.34
2023-07-27T05:44:44.728Z,98511.66
2023-07-27T05:45:17.117Z,98498.72
2023-07-27T05:45:51.464Z,98500.69
2023-07-27T05:46:23.785Z,98497.56
2023-07-27T05:46:59.446Z,98503.44
2023-07-27T05:47:31.746Z,98494.47
2023-07-27T05:48:04.425Z,98504.66
2023-07-27T05:48:36.713Z,98498.41
2023-07-27T05:49:12.013Z,98489.78
2023-07-27T05:49:47.541Z,98492.94
2023-07-27T05:50:20.028Z,98493.34
2023-07-27T05:50:55.663Z,98496.88
2023-07-27T05:51:28.241Z,98490.22
2023-07-27T05:52:00.481Z,98488.66
2023-07-27T05:52:32.747Z,98484.72
2023-07-27T05:53:08.440Z,98496.91
2023-07-27T05:53:40.636Z,98492.97
2023-07-27T05:54:12.904Z,98490.63
2023-07-27T05:54:45.101Z,98494.56
2023-07-27T05:55:20.445Z,98485.16
2023-07-27T05:55:52.708Z,98486.72
2023-07-27T05:56:24.887Z,98487.13
2023-07-27T05:56:57.084Z,98485.94
2023-07-27T05:57:31.941Z,98478.13
2023-07-27T05:58:18.464Z,98479.69
2023-07-27T05:58:58.629Z,98480.06
2023-07-27T05:59:30.901Z,98476.94
2023-07-27T06:00:06.575Z,98482.44
2023-07-27T06:00:42.215Z,98482.81
2023-07-27T06:01:15.818Z,98472.63
2023-07-27T06:01:48.442Z,98478.53
2023-07-27T06:02:20.763Z,98478.91
2023-07-27T06:02:55.646Z,98476.94
2023-07-27T06:03:28.333Z,98477.75
2023-07-27T06:04:07.233Z,98481.69
2023-07-27T06:04:43.036Z,98480.09
2023-07-27T06:05:18.002Z,98484.03
2023-07-27T06:05:50.264Z,98468.75
2023-07-27T06:06:25.191Z,98477.00
2023-07-27T06:06:57.456Z,98482.50
2023-07-27T06:07:29.757Z,98484.47
2023-07-27T06:08:04.854Z,98488.41
2023-07-27T06:08:37.041Z,98491.94
2023-07-27T06:09:10.855Z,98490.75
2023-07-27T06:09:45.773Z,98489.22
2023-07-27T06:10:18.398Z,98490.38
2023-07-27T06:10:50.852Z,98487.63
2023-07-27T06:11:23.105Z,98491.94
2023-07-27T06:11:57.855Z,98494.69
2023-07-27T06:12:30.080Z,98495.88
2023-07-27T06:13:02.331Z,98497.84
2023-07-27T06:13:35.324Z,98501.75
2023-07-27T06:14:10.186Z,98493.13
2023-07-27T06:14:42.744Z,98493.91
2023-07-27T06:15:15.029Z,98500.19
2023-07-27T06:15:48.736Z,98499.41
2023-07-27T06:16:25.820Z,98494.72
2023-07-27T06:16:58.219Z,98495.88
2023-07-27T06:17:30.507Z,98498.22
2023-07-27T06:18:06.687Z,98499.81
2023-07-27T06:18:39.570Z,98500.19
2023-07-27T06:19:11.802Z,98490.38
2023-07-27T06:19:43.986Z,98493.13
2023-07-27T06:20:21.442Z,98498.63
2023-07-27T06:20:53.757Z,98495.50
2023-07-27T06:21:26.039Z,98493.53
2023-07-27T06:21:58.247Z,98494.28
2023-07-27T06:22:33.023Z,98496.28
2023-07-27T06:23:05.316Z,98497.44
2023-07-27T06:23:37.539Z,98500.56
2023-07-27T06:24:10.580Z,98506.47
2023-07-27T06:24:45.481Z,98495.88
2023-07-27T06:25:17.741Z,98506.06
2023-07-27T06:25:51.141Z,98505.69
2023-07-27T06:26:25.989Z,98500.19
2023-07-27T06:26:58.232Z,98511.19
2023-07-27T06:27:30.461Z,98514.31
2023-07-27T06:28:02.655Z,98511.97
2023-07-27T06:28:37.410Z,98512.75
2023-07-27T06:29:09.647Z,98512.75
2023-07-27T06:29:41.893Z,98511.56
2023-07-27T06:30:16.612Z,98511.97
2023-07-27T06:30:51.682Z,98515.09
2023-07-27T06:31:23.984Z,98514.31
2023-07-27T06:31:56.421Z,98519.03
2023-07-27T06:32:31.445Z,98514.72
2023-07-27T06:33:04.334Z,98515.09
2023-07-27T06:33:36.511Z,98510.00
2023-07-27T06:34:08.686Z,98518.63
2023-07-27T06:34:43.488Z,98518.63
2023-07-27T06:35:18.499Z,98520.97
2023-07-27T06:35:50.845Z,98520.97
2023-07-27T06:36:23.202Z,98523.72
2023-07-27T06:36:58.073Z,98521.34
2023-07-27T06:37:30.347Z,98520.94
2023-07-27T06:38:02.879Z,98520.53
2023-07-27T06:38:35.113Z,98523.66
2023-07-27T06:39:10.293Z,98525.63
2023-07-27T06:39:43.218Z,98523.63
2023-07-27T06:40:15.422Z,98519.72
2023-07-27T06:40:47.729Z,98525.59
2023-07-27T06:41:26.578Z,98527.97
2023-07-27T06:41:58.867Z,98524.41
2023-07-27T06:42:36.351Z,98518.50
2023-07-27T06:43:08.582Z,98521.25